Time;durP1;ratioP1;P1;durP2;ratioP2;P2;SDS_P1;SDS_P2;PMS_P1;PMS_P2;Temp;Humidity;BMP_temperature;BMP_pressure;BME280_temperature;BME280_humidity;BME280_pressure;Samples;Min_cycle;Max_cycle;Signal;HPM_P1;HPM_P2
2024/01/21 00:01:14;;;;;;;23.20;16.80;;;;;;;4.25;48.25;102866.85;106770;1267;25488;-51
2024/01/21 00:03:41;;;;;;;23.00;16.30;;;;;;;4.25;47.81;102863.41;106692;1258;22590;-51
2024/01/21 00:06:09;;;;;;;24.30;17.20;;;;;;;4.24;47.97;102863.72;106752;1260;25279;-50
2024/01/21 00:08:36;;;;;;;22.90;16.80;;;;;;;4.21;47.88;102869.12;106000;1264;1003056;-53
2024/01/21 00:11:03;;;;;;;24.50;17.00;;;;;;;4.20;47.96;102868.74;106491;1275;25324;-53
2024/01/21 00:13:31;;;;;;;20.30;15.10;;;;;;;4.21;48.13;102872.20;105950;1268;1003685;-52
2024/01/21 00:15:57;;;;;;;24.30;16.00;;;;;;;4.21;47.95;102874.61;105935;1265;1002419;-52
2024/01/21 00:18:24;;;;;;;22.80;15.60;;;;;;;4.22;47.98;102872.59;105954;1261;1003645;-52
2024/01/21 00:20:52;;;;;;;22.00;16.00;;;;;;;4.22;48.08;102870.35;106828;1261;25356;-53
2024/01/21 00:23:19;;;;;;;20.80;16.30;;;;;;;4.22;47.96;102869.88;106024;1261;1003457;-52
2024/01/21 00:25:46;;;;;;;27.30;16.40;;;;;;;4.21;47.83;102865.48;106758;1270;25453;-52
2024/01/21 00:28:13;;;;;;;20.40;15.20;;;;;;;4.20;47.95;102863.59;106706;1270;25356;-52
2024/01/21 00:30:40;;;;;;;22.70;14.60;;;;;;;4.20;47.76;102859.80;106689;1263;25577;-52
2024/01/21 00:33:08;;;;;;;19.70;14.40;;;;;;;4.14;47.62;102858.89;106716;1270;25338;-53
2024/01/21 00:35:35;;;;;;;20.20;14.30;;;;;;;4.11;47.95;102859.63;106737;1270;25420;-49
2024/01/21 00:38:02;;;;;;;23.60;15.10;;;;;;;4.11;47.75;102859.48;106721;1265;23333;-52
2024/01/21 00:40:29;;;;;;;21.60;14.70;;;;;;;4.10;47.59;102857.54;105583;1276;1002977;-52
2024/01/21 00:42:59;;;;;;;18.00;14.50;;;;;;;4.08;47.73;102853.70;106453;1263;25338;-52
2024/01/21 00:45:26;;;;;;;22.00;15.30;;;;;;;4.11;47.77;102849.84;106747;1270;25487;-52
2024/01/21 00:47:53;;;;;;;21.90;16.70;;;;;;;4.13;47.57;102853.34;106752;1261;25328;-52
2024/01/21 00:50:20;;;;;;;18.90;14.80;;;;;;;4.11;47.63;102851.22;106692;1271;25491;-52
2024/01/21 00:52:47;;;;;;;21.50;14.50;;;;;;;4.05;47.61;102849.79;105733;1267;1002467;-52
2024/01/21 00:55:14;;;;;;;21.10;13.90;;;;;;;4.03;47.95;102848.16;106530;1264;25488;-52
2024/01/21 00:57:41;;;;;;;18.10;14.40;;;;;;;4.02;47.54;102845.88;106780;1258;25358;-51
2024/01/21 01:00:09;;;;;;;21.20;15.00;;;;;;;4.02;47.79;102848.79;106196;1260;1003055;-52
2024/01/21 01:02:36;;;;;;;20.20;14.00;;;;;;;4.00;47.61;102847.02;105736;1268;1002961;-51
2024/01/21 01:05:04;;;;;;;20.30;14.80;;;;;;;3.98;47.83;102845.73;106786;1270;25418;-52
2024/01/21 01:07:31;;;;;;;19.40;13.70;;;;;;;3.96;47.66;102848.73;106734;1260;22547;-51
2024/01/21 01:09:58;;;;;;;20.60;14.50;;;;;;;3.95;47.60;102851.64;105747;1264;1003054;-52
2024/01/21 01:12:25;;;;;;;20.20;13.50;;;;;;;3.95;48.05;102848.86;106380;1264;24218;-52
2024/01/21 01:14:52;;;;;;;22.50;14.10;;;;;;;4.02;47.80;102852.75;106523;1268;25353;-52
2024/01/21 01:17:19;;;;;;;19.70;13.40;;;;;;;4.04;47.81;102854.38;105871;1261;1003446;-51
2024/01/21 01:19:46;;;;;;;19.80;14.00;;;;;;;3.97;47.81;102850.69;106867;1261;25343;-52
2024/01/21 01:22:13;;;;;;;18.30;13.90;;;;;;;3.95;47.77;102849.05;106661;1260;23875;-52
2024/01/21 01:24:41;;;;;;;20.70;14.60;;;;;;;3.94;48.01;102849.85;106805;1260;25369;-52
2024/01/21 01:27:09;;;;;;;21.40;14.90;;;;;;;3.92;48.10;102846.52;106034;1261;1003144;-52
2024/01/21 01:29:36;;;;;;;18.10;13.80;;;;;;;3.92;47.74;102850.98;106453;1261;25346;-52
2024/01/21 01:32:04;;;;;;;20.30;14.00;;;;;;;3.91;47.72;102851.66;105905;1264;1016686;-52
2024/01/21 01:34:30;;;;;;;19.30;12.80;;;;;;;3.92;47.89;102856.30;105561;1263;1016049;-51
2024/01/21 01:36:58;;;;;;;19.00;13.50;;;;;;;3.93;48.07;102856.19;106732;1262;25484;-52
2024/01/21 01:39:25;;;;;;;18.50;13.50;;;;;;;3.94;47.76;102851.75;105833;1263;1003010;-52
2024/01/21 01:41:52;;;;;;;20.00;13.70;;;;;;;3.93;47.82;102844.66;106341;1267;25452;-52
2024/01/21 01:44:19;;;;;;;19.30;14.10;;;;;;;3.90;47.71;102846.98;106540;1264;25429;-52
2024/01/21 01:46:46;;;;;;;24.50;14.90;;;;;;;3.88;47.74;102850.83;106445;1265;23572;-52
2024/01/21 01:49:14;;;;;;;18.20;14.20;;;;;;;3.87;47.82;102854.73;106631;1262;22766;-51
2024/01/21 01:51:41;;;;;;;19.60;13.30;;;;;;;3.87;47.89;102855.26;106610;1262;25342;-52
2024/01/21 01:54:09;;;;;;;21.60;13.90;;;;;;;3.88;47.78;102861.13;106652;1263;25356;-52
2024/01/21 01:56:36;;;;;;;22.10;15.60;;;;;;;3.88;47.78;102859.59;106602;1264;22651;-52
2024/01/21 01:59:08;;;;;;;19.90;14.70;;;;;;;3.88;47.53;102864.92;105584;1273;1003432;-52
2024/01/21 02:01:36;;;;;;;24.50;15.90;;;;;;;3.88;47.64;102864.91;105828;1259;1003697;-53
2024/01/21 02:04:06;;;;;;;20.60;15.00;;;;;;;3.87;47.60;102863.84;106321;1274;25397;-52
2024/01/21 02:06:33;;;;;;;18.50;13.20;;;;;;;3.84;47.67;102867.88;106657;1262;24209;-52
2024/01/21 02:09:00;;;;;;;17.00;13.40;;;;;;;3.83;47.57;102872.63;106623;1264;25487;-53
2024/01/21 02:11:27;;;;;;;18.00;12.40;;;;;;;3.83;47.69;102876.58;106727;1260;24208;-52
2024/01/21 02:13:53;;;;;;;21.10;13.00;;;;;;;3.84;47.80;102875.75;106916;1261;23402;-52
2024/01/21 02:16:40;;;;;;;17.30;12.90;;;;;;;3.85;47.58;102879.39;105836;1277;1003474;-51
2024/01/21 02:19:11;;;;;;;17.40;12.70;;;;;;;3.84;47.46;102871.98;106411;1280;25340;-52
2024/01/21 02:21:38;;;;;;;15.50;12.70;;;;;;;3.82;47.53;102868.47;106395;1267;25331;-52
2024/01/21 02:24:05;;;;;;;20.00;13.40;;;;;;;3.80;47.07;102868.23;106747;1274;25366;-52
2024/01/21 02:26:32;;;;;;;17.20;13.50;;;;;;;3.77;47.13;102872.39;105939;1272;1003061;-52
2024/01/21 02:28:59;;;;;;;18.80;12.20;;;;;;;3.75;47.05;102866.98;106576;1264;25596;-51
2024/01/21 02:31:26;;;;;;;19.00;13.00;;;;;;;3.78;47.17;102864.71;106487;1270;25338;-52
2024/01/21 02:33:53;;;;;;;19.90;13.70;;;;;;;3.84;46.78;102868.88;106365;1267;25373;-52
2024/01/21 02:36:20;;;;;;;17.00;11.30;;;;;;;3.84;46.75;102874.01;105787;1277;1003063;-52
2024/01/21 02:38:47;;;;;;;19.40;13.40;;;;;;;3.83;46.91;102879.50;106095;1261;1002832;-52
2024/01/21 02:41:14;;;;;;;20.90;12.80;;;;;;;3.83;46.78;102881.54;106688;1263;25370;-51
2024/01/21 02:43:41;;;;;;;18.80;12.90;;;;;;;3.81;46.62;102897.09;106752;1258;25360;-52
2024/01/21 02:46:08;;;;;;;18.10;13.40;;;;;;;3.79;46.85;102894.09;106740;1264;25343;-52
2024/01/21 02:48:35;;;;;;;19.50;14.20;;;;;;;3.76;46.82;102891.75;106754;1257;25360;-52
2024/01/21 02:51:03;;;;;;;21.90;14.50;;;;;;;3.75;47.07;102893.77;106420;1261;25328;-52
2024/01/21 02:53:30;;;;;;;18.30;12.30;;;;;;;3.70;47.34;102892.33;106775;1257;25328;-52
2024/01/21 02:55:57;;;;;;;18.50;13.90;;;;;;;3.67;47.26;102887.93;106735;1260;25397;-52
2024/01/21 02:58:23;;;;;;;16.50;12.90;;;;;;;3.67;47.45;102889.50;106024;1269;1003011;-52
2024/01/21 03:00:51;;;;;;;23.90;14.80;;;;;;;3.67;47.28;102886.75;106755;1257;25318;-52
2024/01/21 03:03:18;;;;;;;23.40;15.60;;;;;;;3.68;47.50;102884.52;106683;1257;25481;-51
2024/01/21 03:05:45;;;;;;;20.70;14.70;;;;;;;3.66;47.20;102893.91;106712;1260;25356;-53
2024/01/21 03:08:12;;;;;;;20.80;14.50;;;;;;;3.65;47.06;102902.58;106764;1256;24039;-52
2024/01/21 03:10:39;;;;;;;18.60;13.60;;;;;;;3.62;47.42;102902.16;106107;1260;1003263;-52
2024/01/21 03:13:07;;;;;;;20.00;14.50;;;;;;;3.61;47.57;102893.70;106804;1272;25373;-52
2024/01/21 03:15:34;;;;;;;19.50;12.90;;;;;;;3.61;47.15;102887.67;106706;1264;25397;-52
2024/01/21 03:18:01;;;;;;;18.30;13.20;;;;;;;3.61;47.28;102883.58;106014;1260;1003038;-52
2024/01/21 03:20:28;;;;;;;19.20;14.70;;;;;;;3.62;47.22;102876.05;106785;1261;25339;-52
2024/01/21 03:22:55;;;;;;;21.30;14.60;;;;;;;3.62;47.22;102880.85;106813;1258;24263;-51
2024/01/21 03:25:22;;;;;;;18.70;13.80;;;;;;;3.60;47.18;102890.89;106040;1261;1003131;-52
2024/01/21 03:27:49;;;;;;;20.90;15.30;;;;;;;3.58;47.25;102894.25;105759;1264;1003803;-51
2024/01/21 03:30:16;;;;;;;19.20;14.50;;;;;;;3.55;47.29;102899.27;106721;1260;25418;-52
2024/01/21 03:32:43;;;;;;;21.10;14.60;;;;;;;3.52;47.21;102896.42;106740;1259;25359;-51
2024/01/21 03:35:11;;;;;;;18.30;15.10;;;;;;;3.51;47.49;102901.17;106082;1270;1003645;-52
2024/01/21 03:37:38;;;;;;;20.80;15.20;;;;;;;3.51;47.45;102902.02;105572;1276;1003098;-51
2024/01/21 03:40:06;;;;;;;17.80;13.10;;;;;;;3.52;47.66;102904.14;106794;1261;25367;-52
2024/01/21 03:42:33;;;;;;;20.90;15.20;;;;;;;3.53;47.71;102905.90;106718;1257;25346;-52
2024/01/21 03:45:00;;;;;;;19.50;14.20;;;;;;;3.55;47.41;102910.95;106688;1267;24370;-52
2024/01/21 03:47:28;;;;;;;18.90;13.60;;;;;;;3.55;47.33;102913.34;105965;1260;1003420;-52
2024/01/21 03:49:55;;;;;;;19.90;14.20;;;;;;;3.55;47.34;102918.30;106025;1268;1002802;-52
2024/01/21 03:52:22;;;;;;;22.50;15.30;;;;;;;3.52;47.23;102918.22;106683;1260;25410;-52
2024/01/21 03:54:49;;;;;;;21.00;15.30;;;;;;;3.50;47.54;102923.08;106743;1260;23439;-52
2024/01/21 03:57:16;;;;;;;20.70;15.60;;;;;;;3.48;47.68;102930.38;106021;1262;1003107;-52
2024/01/21 03:59:44;;;;;;;20.80;15.60;;;;;;;3.47;47.45;102939.80;106803;1259;25359;-52
2024/01/21 04:02:11;;;;;;;24.60;15.40;;;;;;;3.47;47.64;102936.16;106746;1264;25410;-52
2024/01/21 04:04:38;;;;;;;21.10;15.10;;;;;;;3.48;47.50;102935.52;106417;1263;24219;-52
2024/01/21 04:07:05;;;;;;;22.50;15.40;;;;;;;3.47;47.43;102937.02;106644;1259;25386;-52
2024/01/21 04:09:32;;;;;;;24.10;15.80;;;;;;;3.40;47.57;102936.73;106010;1261;1003903;-52
2024/01/21 04:11:59;;;;;;;22.40;15.40;;;;;;;3.41;47.48;102939.71;106736;1259;25325;-52
2024/01/21 04:14:27;;;;;;;23.60;15.90;;;;;;;3.44;47.42;102943.44;106715;1256;25348;-52
2024/01/21 04:16:54;;;;;;;21.40;15.90;;;;;;;3.44;47.76;102947.02;106729;1260;25348;-52
2024/01/21 04:19:21;;;;;;;23.20;16.90;;;;;;;3.43;47.48;102946.49;105904;1259;1003148;-52
2024/01/21 04:21:48;;;;;;;22.20;15.40;;;;;;;3.42;47.74;102948.66;106724;1265;25356;-52
2024/01/21 04:24:15;;;;;;;27.00;17.00;;;;;;;3.43;47.73;102953.84;106386;1259;456863;-52
2024/01/21 04:26:42;;;;;;;23.30;15.50;;;;;;;3.44;47.67;102958.69;106807;1258;25488;-52
2024/01/21 04:29:09;;;;;;;23.60;15.70;;;;;;;3.44;47.61;102963.02;106015;1264;1003047;-52
2024/01/21 04:31:36;;;;;;;22.30;15.40;;;;;;;3.45;47.82;102965.24;105663;1265;1003527;-52
2024/01/21 04:34:03;;;;;;;19.00;14.30;;;;;;;3.45;47.65;102968.37;106778;1261;25363;-52
2024/01/21 04:36:30;;;;;;;20.60;15.40;;;;;;;3.45;47.56;102974.70;106767;1257;25366;-51
2024/01/21 04:38:57;;;;;;;23.40;15.00;;;;;;;3.44;47.78;102980.33;105613;1272;1003694;-52
2024/01/21 04:41:24;;;;;;;19.20;14.90;;;;;;;3.43;47.56;102987.82;106672;1260;24218;-52
2024/01/21 04:43:51;;;;;;;22.50;15.70;;;;;;;3.41;47.61;102990.69;105991;1257;1003013;-52
2024/01/21 04:46:18;;;;;;;21.70;15.80;;;;;;;3.41;47.74;102992.18;106789;1256;25491;-52
2024/01/21 04:48:45;;;;;;;22.80;16.50;;;;;;;3.42;47.96;102991.20;106725;1260;25367;-52
2024/01/21 04:51:13;;;;;;;21.40;15.40;;;;;;;3.44;47.72;102996.09;106002;1256;1003733;-51
2024/01/21 04:53:40;;;;;;;23.20;15.90;;;;;;;3.45;47.76;103001.11;106357;1279;25406;-51
2024/01/21 04:56:07;;;;;;;30.30;17.80;;;;;;;3.45;48.09;103000.59;106737;1261;25328;-52
2024/01/21 04:58:34;;;;;;;26.90;15.90;;;;;;;3.44;47.98;103000.90;106765;1261;25331;-52
2024/01/21 05:01:01;;;;;;;20.30;14.80;;;;;;;3.42;47.74;102997.21;106422;1265;24212;-52
2024/01/21 05:03:28;;;;;;;21.70;15.50;;;;;;;3.38;47.83;102996.02;106798;1259;24323;-52
2024/01/21 05:05:57;;;;;;;22.80;14.80;;;;;;;3.36;47.83;102994.56;106763;1272;25458;-52
2024/01/21 05:08:24;;;;;;;20.40;14.40;;;;;;;3.36;47.96;102994.36;105989;1260;1002891;-53
2024/01/21 05:10:51;;;;;;;22.50;14.20;;;;;;;3.37;48.05;102990.50;106801;1260;25456;-52
2024/01/21 05:13:18;;;;;;;23.50;13.90;;;;;;;3.42;47.80;102995.67;106090;1260;1003118;-52
2024/01/21 05:15:45;;;;;;;19.10;13.60;;;;;;;3.46;47.66;103007.52;106093;1256;1003691;-52
2024/01/21 05:18:12;;;;;;;16.40;12.80;;;;;;;3.47;47.51;103013.39;106448;1275;25517;-52
2024/01/21 05:20:39;;;;;;;19.70;13.60;;;;;;;3.48;47.29;103006.91;106870;1262;25437;-52
2024/01/21 05:23:06;;;;;;;19.50;12.80;;;;;;;3.48;47.23;103010.16;106741;1276;25372;-52
2024/01/21 05:25:33;;;;;;;21.00;14.80;;;;;;;3.46;46.95;103008.05;105992;1259;1003581;-52
2024/01/21 05:28:00;;;;;;;19.10;14.70;;;;;;;3.45;46.89;103008.83;106035;1259;1016040;-52
2024/01/21 05:30:27;;;;;;;21.60;14.30;;;;;;;3.43;47.06;103009.11;106692;1261;23430;-53
2024/01/21 05:32:54;;;;;;;17.80;13.70;;;;;;;3.43;47.22;103011.02;106378;1264;25456;-51
2024/01/21 05:35:22;;;;;;;20.30;13.70;;;;;;;3.46;46.99;103011.29;106423;1260;25349;-51
2024/01/21 05:37:49;;;;;;;14.70;12.10;;;;;;;3.48;46.92;103011.39;105723;1263;1002956;-52
2024/01/21 05:40:16;;;;;;;19.00;13.50;;;;;;;3.50;46.87;103031.54;105767;1256;1003004;-52
2024/01/21 05:42:44;;;;;;;20.10;14.00;;;;;;;3.51;46.97;103055.92;106522;1260;26475;-51
2024/01/21 05:45:11;;;;;;;15.90;12.90;;;;;;;3.50;46.92;103063.46;106582;1259;24195;-52
2024/01/21 05:47:38;;;;;;;18.40;13.60;;;;;;;3.48;47.13;103068.85;105758;1261;1003061;-52
2024/01/21 05:50:06;;;;;;;17.50;13.00;;;;;;;3.47;47.45;103066.91;106533;1257;25364;-53
2024/01/21 05:52:33;;;;;;;19.80;13.10;;;;;;;3.45;47.21;103069.95;106553;1259;23437;-54
2024/01/21 05:55:00;;;;;;;21.30;12.90;;;;;;;3.45;47.43;103070.45;106021;1272;24649;-53
2024/01/21 05:57:28;;;;;;;18.00;13.00;;;;;;;3.47;47.65;103065.71;106557;1260;25357;-52
2024/01/21 05:59:54;;;;;;;18.10;12.90;;;;;;;3.50;47.46;103072.89;106483;1260;22574;-53
2024/01/21 06:02:21;;;;;;;14.20;11.00;;;;;;;3.54;47.36;103072.23;105744;1260;1002576;-52
2024/01/21 06:04:50;;;;;;;16.70;11.90;;;;;;;3.59;47.53;103077.77;106523;1270;22640;-53
2024/01/21 06:07:17;;;;;;;17.10;12.10;;;;;;;3.64;47.40;103075.73;106585;1257;25346;-53
2024/01/21 06:09:46;;;;;;;17.00;12.50;;;;;;;3.69;47.62;103072.86;105901;1263;1003030;-51
2024/01/21 06:12:13;;;;;;;16.80;11.30;;;;;;;3.74;47.43;103079.11;106010;1259;1003204;-52
2024/01/21 06:14:40;;;;;;;16.80;10.80;;;;;;;3.76;47.47;103074.91;106730;1261;24363;-54
2024/01/21 06:17:07;;;;;;;14.80;10.90;;;;;;;3.78;47.29;103071.04;106741;1265;25363;-53
2024/01/21 06:19:34;;;;;;;15.40;11.20;;;;;;;3.81;47.54;103076.48;106777;1268;25522;-50
2024/01/21 06:22:01;;;;;;;14.80;10.70;;;;;;;3.89;47.82;103073.75;106788;1266;25442;-50
2024/01/21 06:24:28;;;;;;;16.80;11.20;;;;;;;4.02;47.69;103069.64;106728;1260;25390;-51
2024/01/21 06:26:55;;;;;;;12.80;9.70;;;;;;;4.17;47.46;103074.75;106392;1264;24364;-51
2024/01/21 06:29:23;;;;;;;15.70;10.80;;;;;;;4.34;47.17;103070.98;105730;1264;1003761;-50
2024/01/21 06:31:50;;;;;;;17.30;11.20;;;;;;;4.54;47.24;103067.31;106726;1261;25409;-50
2024/01/21 06:34:17;;;;;;;13.70;10.00;;;;;;;4.74;46.65;103067.42;106452;1275;23254;-51
2024/01/21 06:36:44;;;;;;;15.00;10.40;;;;;;;4.89;46.26;103067.68;105969;1261;1003515;-51
2024/01/21 06:39:11;;;;;;;14.80;9.90;;;;;;;5.00;45.84;103068.60;106000;1256;1015381;-51
2024/01/21 06:41:38;;;;;;;13.80;10.10;;;;;;;5.05;45.75;103066.90;105937;1261;1003261;-51
2024/01/21 06:44:05;;;;;;;12.80;9.90;;;;;;;5.07;45.49;103067.33;106612;1264;25348;-51
2024/01/21 06:46:32;;;;;;;14.00;10.60;;;;;;;5.08;45.63;103069.59;106721;1258;25356;-51
2024/01/21 06:48:59;;;;;;;15.40;11.80;;;;;;;5.07;45.55;103069.71;106787;1258;25408;-51
2024/01/21 06:51:42;;;;;;;16.10;11.20;;;;;;;5.07;45.66;103067.48;106715;1262;26095;-51
2024/01/21 06:54:09;;;;;;;15.10;10.70;;;;;;;5.08;45.75;103071.29;106777;1257;24201;-52
2024/01/21 06:56:37;;;;;;;12.30;9.60;;;;;;;5.09;45.95;103070.84;106752;1259;23291;-51
2024/01/21 06:59:05;;;;;;;13.50;10.20;;;;;;;5.14;45.80;103079.09;106718;1259;24228;-52
2024/01/21 07:01:32;;;;;;;11.10;9.60;;;;;;;5.18;45.77;103077.90;106693;1263;22529;-53
2024/01/21 07:04:00;;;;;;;11.80;9.30;;;;;;;5.22;45.50;103080.61;106755;1260;25356;-54
2024/01/21 07:06:27;;;;;;;14.20;9.30;;;;;;;5.24;45.59;103080.52;105999;1260;1002789;-52
2024/01/21 07:08:55;;;;;;;12.90;9.90;;;;;;;5.24;45.45;103078.45;106674;1257;25386;-53
2024/01/21 07:11:22;;;;;;;12.30;9.10;;;;;;;5.24;45.44;103082.05;106484;1264;25338;-51
2024/01/21 07:13:49;;;;;;;10.80;8.90;;;;;;;5.22;45.53;103078.71;105723;1264;1003782;-52
2024/01/21 07:16:16;;;;;;;13.20;9.30;;;;;;;5.21;45.60;103078.84;105895;1263;1003364;-52
2024/01/21 07:18:43;;;;;;;12.70;9.70;;;;;;;5.20;45.70;103079.48;106456;1264;25341;-51
2024/01/21 07:21:10;;;;;;;14.10;9.60;;;;;;;5.20;45.73;103079.17;106823;1259;25418;-51
2024/01/21 07:23:38;;;;;;;11.40;9.10;;;;;;;5.22;45.69;103077.86;105302;1278;1003709;-51
2024/01/21 07:26:05;;;;;;;12.70;9.60;;;;;;;5.25;46.01;103078.32;105832;1259;1002466;-51
2024/01/21 07:28:32;;;;;;;12.20;8.80;;;;;;;5.30;46.00;103081.08;106533;1256;25328;-51
2024/01/21 07:30:59;;;;;;;15.20;9.80;;;;;;;5.37;46.17;103079.98;106313;1272;25363;-52
2024/01/21 07:33:27;;;;;;;12.00;9.10;;;;;;;5.45;46.30;103081.30;106470;1256;25468;-53
2024/01/21 07:35:54;;;;;;;11.40;9.20;;;;;;;5.52;46.37;103087.60;106541;1257;25338;-51
2024/01/21 07:38:21;;;;;;;12.60;9.20;;;;;;;5.59;46.35;103092.32;105508;1264;1003340;-52
2024/01/21 07:40:48;;;;;;;11.80;9.40;;;;;;;5.66;46.42;103090.31;106674;1260;25387;-52
2024/01/21 07:43:16;;;;;;;11.70;8.80;;;;;;;5.71;46.56;103089.65;106613;1262;25356;-50
2024/01/21 07:45:42;;;;;;;11.10;8.30;;;;;;;5.77;46.56;103089.66;106817;1260;25491;-55
2024/01/21 07:48:10;;;;;;;11.30;8.40;;;;;;;5.81;46.38;103091.72;106815;1260;25370;-50
2024/01/21 07:50:37;;;;;;;12.20;9.40;;;;;;;5.86;46.37;103093.31;106770;1261;25441;-52
2024/01/21 07:53:05;;;;;;;9.70;8.30;;;;;;;5.92;46.33;103095.24;106658;1260;25386;-50
2024/01/21 07:55:32;;;;;;;14.10;8.20;;;;;;;5.98;46.30;103091.11;106044;1259;1018153;-51
2024/01/21 07:58:01;;;;;;;12.60;8.60;;;;;;;6.04;46.29;103095.48;105689;1259;1003178;-51
2024/01/21 08:00:28;;;;;;;11.10;8.20;;;;;;;6.08;46.05;103094.91;106686;1256;25404;-51
2024/01/21 08:02:55;;;;;;;10.00;7.30;;;;;;;6.10;46.10;103096.02;106404;1260;25348;-51
2024/01/21 08:05:22;;;;;;;9.50;7.60;;;;;;;6.11;46.09;103096.58;105548;1265;1003087;-50
2024/01/21 08:07:49;;;;;;;8.90;7.70;;;;;;;6.13;46.13;103098.36;106595;1270;25366;-51
2024/01/21 08:10:16;;;;;;;11.90;8.40;;;;;;;6.14;46.17;103099.43;106696;1265;22557;-52
2024/01/21 08:12:43;;;;;;;12.80;8.80;;;;;;;6.15;46.12;103103.63;106530;1259;25353;-51
2024/01/21 08:15:10;;;;;;;9.70;8.10;;;;;;;6.16;46.29;103103.30;106683;1258;24223;-51
2024/01/21 08:17:37;;;;;;;10.70;7.40;;;;;;;6.20;46.44;103105.52;106744;1261;25477;-51
2024/01/21 08:20:05;;;;;;;11.20;7.60;;;;;;;6.26;46.44;103107.78;106517;1273;25344;-51
2024/01/21 08:22:33;;;;;;;9.70;7.80;;;;;;;6.31;46.46;103108.80;106692;1260;22696;-51
2024/01/21 08:25:00;;;;;;;11.60;7.80;;;;;;;6.35;46.37;103112.05;106722;1258;25328;-51
2024/01/21 08:27:28;;;;;;;10.40;8.10;;;;;;;6.37;46.33;103117.80;106090;1261;1003607;-51
2024/01/21 08:29:55;;;;;;;12.10;7.90;;;;;;;6.39;46.45;103119.07;106727;1259;25328;-51
2024/01/21 08:32:22;;;;;;;14.60;8.80;;;;;;;6.39;46.49;103118.52;106797;1261;25571;-51
2024/01/21 08:34:50;;;;;;;10.40;8.60;;;;;;;6.39;46.63;103117.17;106789;1256;25366;-51
2024/01/21 08:37:17;;;;;;;10.20;7.80;;;;;;;6.39;46.72;103117.70;106049;1262;1003398;-51
2024/01/21 08:39:44;;;;;;;10.60;7.50;;;;;;;6.42;46.90;103114.17;106812;1258;25348;-51
2024/01/21 08:42:19;;;;;;;11.00;7.80;;;;;;;6.48;47.00;103112.30;106607;1278;25494;-51
2024/01/21 08:44:46;;;;;;;12.60;9.00;;;;;;;6.54;47.01;103104.39;105968;1262;1003078;-51
2024/01/21 08:47:14;;;;;;;12.60;8.00;;;;;;;6.59;47.09;103100.74;106473;1263;25328;-51
2024/01/21 08:49:41;;;;;;;9.30;6.90;;;;;;;6.64;47.03;103098.13;106734;1260;23526;-51
2024/01/21 08:52:12;;;;;;;12.30;9.10;;;;;;;6.66;46.98;103099.23;105725;1264;1002968;-51
2024/01/21 08:54:39;;;;;;;11.00;7.90;;;;;;;6.68;47.04;103095.34;106456;1262;25412;-51
2024/01/21 08:57:06;;;;;;;10.30;7.40;;;;;;;6.70;47.10;103096.95;106721;1269;24191;-51
2024/01/21 08:59:33;;;;;;;10.80;6.90;;;;;;;6.73;47.11;103097.41;106800;1259;25512;-51
2024/01/21 09:02:00;;;;;;;7.80;6.40;;;;;;;6.77;47.09;103097.84;106034;1257;1003555;-51
2024/01/21 09:04:27;;;;;;;13.60;7.50;;;;;;;6.81;46.98;103097.30;106582;1262;25360;-51
2024/01/21 09:06:54;;;;;;;10.20;7.10;;;;;;;6.85;46.73;103096.38;106533;1264;22677;-51
2024/01/21 09:09:21;;;;;;;8.50;6.70;;;;;;;6.89;46.84;103092.02;106598;1267;25324;-51
2024/01/21 09:11:49;;;;;;;9.10;6.40;;;;;;;6.95;46.70;103094.27;106633;1259;25416;-52
2024/01/21 09:14:16;;;;;;;8.80;6.30;;;;;;;7.02;46.32;103093.27;106670;1260;22603;-51
2024/01/21 09:16:43;;;;;;;8.70;6.20;;;;;;;7.08;46.05;103093.29;106744;1260;25386;-51
2024/01/21 09:19:11;;;;;;;8.40;6.90;;;;;;;7.12;45.86;103095.52;106821;1260;25340;-51
2024/01/21 09:21:38;;;;;;;9.30;6.60;;;;;;;7.16;45.75;103091.98;105996;1260;1003037;-51
2024/01/21 09:24:06;;;;;;;9.60;6.30;;;;;;;7.17;45.47;103089.61;106689;1259;25883;-51
2024/01/21 09:26:34;;;;;;;6.70;6.00;;;;;;;7.17;45.35;103088.05;105814;1263;1003414;-51
2024/01/21 09:29:01;;;;;;;9.00;6.70;;;;;;;7.15;45.31;103086.96;106843;1259;25360;-52
2024/01/21 09:31:27;;;;;;;11.60;6.60;;;;;;;7.14;45.21;103089.67;106780;1259;23892;-51
2024/01/21 09:33:56;;;;;;;10.50;6.80;;;;;;;7.12;45.28;103091.16;106727;1261;25366;-51
2024/01/21 09:36:23;;;;;;;6.60;5.80;;;;;;;7.11;45.42;103094.09;105951;1272;1002656;-51
2024/01/21 09:38:54;;;;;;;7.90;6.30;;;;;;;7.11;45.27;103091.14;106229;1272;23277;-51
2024/01/21 09:41:42;;;;;;;9.10;6.60;;;;;;;7.11;45.33;103092.89;106278;1268;25409;-53
2024/01/21 09:44:10;;;;;;;10.30;7.30;;;;;;;7.11;45.43;103094.09;105981;1260;1003473;-52
2024/01/21 09:46:37;;;;;;;10.80;7.20;;;;;;;7.11;45.56;103092.02;106738;1261;22527;-51
2024/01/21 09:49:04;;;;;;;8.80;6.70;;;;;;;7.12;45.51;103091.34;106742;1268;23877;-51
2024/01/21 09:51:31;;;;;;;9.80;7.10;;;;;;;7.12;45.60;103090.81;106463;1265;25354;-51
2024/01/21 09:54:04;;;;;;;12.70;7.10;;;;;;;7.12;45.64;103091.01;106454;1261;25485;-51
2024/01/21 09:56:31;;;;;;;8.90;7.00;;;;;;;7.13;45.51;103091.04;106421;1265;22545;-51
2024/01/21 09:58:58;;;;;;;9.80;7.00;;;;;;;7.16;45.69;103092.85;106309;1265;25659;-51
2024/01/21 10:01:25;;;;;;;8.40;6.90;;;;;;;7.23;45.89;103095.64;106239;1267;25376;-51
2024/01/21 10:03:53;;;;;;;8.40;7.10;;;;;;;7.30;45.80;103091.55;106277;1267;25358;-51
2024/01/21 10:06:22;;;;;;;9.10;6.70;;;;;;;7.39;45.82;103090.74;105956;1281;25428;-51
2024/01/21 10:08:50;;;;;;;9.70;6.70;;;;;;;7.48;45.69;103090.84;105558;1274;1003379;-51
2024/01/21 10:11:16;;;;;;;8.50;7.20;;;;;;;7.56;45.58;103093.30;106280;1265;22527;-51
2024/01/21 10:13:44;;;;;;;8.00;6.80;;;;;;;7.63;45.58;103096.60;106340;1273;25393;-51
2024/01/21 10:16:12;;;;;;;9.50;7.20;;;;;;;7.69;45.59;103091.95;106361;1262;22532;-51
2024/01/21 10:18:39;;;;;;;8.70;6.60;;;;;;;7.76;45.55;103094.73;106182;1265;25373;-52
2024/01/21 10:21:07;;;;;;;9.70;7.50;;;;;;;7.85;45.61;103096.51;106334;1265;25345;-52
2024/01/21 10:23:35;;;;;;;8.30;6.30;;;;;;;7.93;45.52;103094.33;105790;1262;1003310;-52
2024/01/21 10:26:02;;;;;;;12.40;7.50;;;;;;;8.00;45.01;103095.90;106541;1259;25338;-52
2024/01/21 10:28:32;;;;;;;9.60;6.90;;;;;;;8.01;44.86;103094.88;106560;1262;25400;-50
2024/01/21 10:30:59;;;;;;;8.50;6.40;;;;;;;8.02;44.90;103093.52;106653;1262;25412;-53
2024/01/21 10:33:26;;;;;;;9.10;6.50;;;;;;;8.03;44.78;103089.92;106711;1258;25360;-52
2024/01/21 10:35:55;;;;;;;8.80;6.80;;;;;;;8.04;44.84;103086.48;106722;1262;25419;-52
2024/01/21 10:38:22;;;;;;;9.10;6.20;;;;;;;8.06;44.69;103085.14;106700;1265;25342;-51
2024/01/21 10:40:49;;;;;;;9.00;5.90;;;;;;;8.07;44.91;103081.58;106790;1262;25418;-50
2024/01/21 10:43:16;;;;;;;5.70;5.10;;;;;;;8.11;44.85;103081.13;106681;1262;25463;-51
2024/01/21 10:45:46;;;;;;;10.60;6.20;;;;;;;8.13;44.50;103081.02;106373;1264;25416;-51
2024/01/21 10:48:13;;;;;;;7.40;5.90;;;;;;;8.15;44.43;103080.20;106763;1262;25419;-50
2024/01/21 10:50:42;;;;;;;7.70;5.60;;;;;;;8.18;44.53;103076.83;106000;1271;1002902;-51
2024/01/21 10:53:12;;;;;;;8.80;6.20;;;;;;;8.22;44.89;103074.51;106738;1262;25339;-52
2024/01/21 10:55:40;;;;;;;8.40;6.00;;;;;;;8.23;44.94;103070.02;106764;1261;25338;-52
2024/01/21 10:58:10;;;;;;;8.30;6.80;;;;;;;8.23;44.84;103068.66;106880;1260;23093;-52
2024/01/21 11:00:38;;;;;;;8.60;6.50;;;;;;;8.26;44.34;103071.34;106676;1262;25488;-50
2024/01/21 11:03:25;;;;;;;10.70;6.70;;;;;;;8.28;44.16;103069.46;106390;1278;25391;-52
2024/01/21 11:06:06;;;;;;;9.10;6.30;;;;;;;8.29;44.13;103066.39;106776;1273;24265;-51
2024/01/21 11:08:35;;;;;;;9.20;6.90;;;;;;;8.32;44.35;103063.34;105964;1276;1002931;-52
2024/01/21 11:11:08;;;;;;;7.80;6.60;;;;;;;8.35;44.16;103068.09;106843;1272;25485;-51